Disclaimer

Please do not use the information listed here in-flight or in-navigation, as they are not provided to us by the airports but are provided by volunteers, so they might be outdated.

Search


Regions


Airport information page

Radio informations:
Tower (TWR) - 134.925 MHz
Automatic Terminal Information Service (ATIS) - 121.875 MHz
Approach (APP) - 122.85 MHz

Airport informations:
Latitude: 52° 04' 20.00" N
Longitude: 000° 37' 00.00" W
Elevation: 358 feet - 109 meters
Operating hours: Remarks
Operating agency: Private
Timezone: UTC 0(+1DT) - Last Sunday in March to last Sunday in October
Fuel: Jet A1+, Jet A1 with icing inhibitor.

Jet A1, without icing nhibitor.

100/130 MIL Spec, low lead, aviation gasoline (BLUE)

Runway information:
03/21 - 5902 x 151 feet< - >1799 x 46 meters
18/36 - 2033 x 59 feet< - >620 x 18 meters

Recent METARs:
EGTC 191620Z 04012KT 9999 SCT025 06/04 Q1018
EGTC 191620Z 04012KT 9999 SCT025 06/04 Q1018
EGTC 191620Z 04012KT 9999 SCT025 06/04 Q1018

Airport on the map: